createdAt,value
2023-03-26T00:03:54.361Z,18.1
2023-03-26T00:09:59.967Z,18.1
2023-03-26T00:16:05.758Z,18.1
2023-03-26T00:22:11.089Z,18
2023-03-26T00:28:16.699Z,18
2023-03-26T00:34:21.879Z,18
2023-03-26T00:40:27.648Z,18
2023-03-26T00:46:32.687Z,18
2023-03-26T00:52:38.175Z,18
2023-03-26T00:58:43.283Z,18
2023-03-26T01:04:48.426Z,18
2023-03-26T01:10:53.807Z,17.9
2023-03-26T01:16:59.808Z,17.9
2023-03-26T01:23:05.170Z,17.9
2023-03-26T01:29:10.932Z,17.9
2023-03-26T01:35:16.555Z,17.9
2023-03-26T01:41:22.163Z,17.9
2023-03-26T01:47:27.344Z,17.9
2023-03-26T01:53:32.665Z,17.8
2023-03-26T01:59:38.043Z,17.8
2023-03-26T02:05:43.552Z,17.8
2023-03-26T02:11:48.975Z,17.8
2023-03-26T02:17:54.609Z,17.8
2023-03-26T02:24:00.128Z,17.8
2023-03-26T02:30:06.106Z,17.8
2023-03-26T02:36:11.517Z,17.8
2023-03-26T02:42:17.046Z,17.7
2023-03-26T02:48:22.411Z,17.7
2023-03-26T02:54:27.782Z,17.7
2023-03-26T03:00:33.356Z,17.7
2023-03-26T03:06:38.529Z,17.7
2023-03-26T03:12:43.685Z,17.6
2023-03-26T03:18:49.266Z,17.6
2023-03-26T03:24:54.008Z,17.6
2023-03-26T03:30:59.465Z,17.6
2023-03-26T03:37:05.175Z,17.6
2023-03-26T03:43:09.919Z,17.6
2023-03-26T03:49:15.422Z,17.6
2023-03-26T03:55:20.644Z,17.5
2023-03-26T04:01:25.815Z,17.5
2023-03-26T04:07:31.381Z,17.5
2023-03-26T04:13:36.537Z,17.5
2023-03-26T04:19:41.912Z,17.5
2023-03-26T04:25:47.099Z,17.5
2023-03-26T04:31:52.424Z,17.5
2023-03-26T04:37:57.798Z,17.5
2023-03-26T04:44:03.174Z,17.4
2023-03-26T04:50:08.354Z,17.4
2023-03-26T04:56:13.918Z,17.4
2023-03-26T05:02:19.019Z,17.4
2023-03-26T05:08:24.631Z,17.4
2023-03-26T05:14:30.018Z,17.4
2023-03-26T05:20:35.777Z,17.4
2023-03-26T05:26:41.296Z,17.4
2023-03-26T05:32:47.373Z,17.4
2023-03-26T05:38:52.901Z,17.4
2023-03-26T05:44:58.841Z,17.4
2023-03-26T05:51:04.225Z,17.5
2023-03-26T05:57:09.458Z,17.6
2023-03-26T06:03:14.901Z,17.8
2023-03-26T06:09:20.559Z,17.9
2023-03-26T06:15:26.313Z,18
2023-03-26T06:21:31.962Z,18
2023-03-26T06:27:37.281Z,18
2023-03-26T06:33:42.651Z,18
2023-03-26T06:39:48.157Z,18
2023-03-26T06:45:53.744Z,18
2023-03-26T06:51:59.514Z,18
2023-03-26T06:58:04.947Z,18
2023-03-26T07:04:10.464Z,18
2023-03-26T07:10:15.895Z,18
2023-03-26T07:16:21.207Z,17.9
2023-03-26T07:22:26.876Z,17.9
2023-03-26T07:28:32.549Z,17.9
2023-03-26T07:34:38.112Z,17.9
2023-03-26T07:40:43.746Z,17.9
2023-03-26T07:46:49.128Z,17.8
2023-03-26T07:52:54.421Z,17.8
2023-03-26T07:58:59.577Z,17.8
2023-03-26T08:05:04.851Z,17.8
2023-03-26T08:11:10.117Z,17.9
2023-03-26T08:17:15.903Z,17.9
2023-03-26T08:23:21.316Z,17.9
2023-03-26T08:29:26.842Z,17.9
2023-03-26T08:35:32.277Z,17.9
2023-03-26T08:41:38.056Z,17.9
2023-03-26T08:47:46.028Z,18
2023-03-26T08:53:51.188Z,18
2023-03-26T08:59:56.538Z,17.9
2023-03-26T09:06:05.204Z,17.9
2023-03-26T09:12:10.607Z,17.9
2023-03-26T09:18:15.756Z,17.9
2023-03-26T09:24:21.369Z,17.9
2023-03-26T09:30:26.490Z,18
2023-03-26T09:36:32.013Z,18
2023-03-26T09:42:37.442Z,18
2023-03-26T09:48:42.975Z,18
2023-03-26T09:54:48.606Z,18
2023-03-26T10:00:53.944Z,18
2023-03-26T10:06:59.881Z,18.1
2023-03-26T10:13:14.350Z,18
2023-03-26T10:19:20.441Z,18
2023-03-26T10:25:26.039Z,18
2023-03-26T10:31:32.058Z,18.1
2023-03-26T10:37:37.010Z,18
2023-03-26T10:43:42.789Z,18
2023-03-26T10:50:00.603Z,18
2023-03-26T10:56:06.371Z,18.1
2023-03-26T11:02:11.327Z,18.1
2023-03-26T11:08:17.164Z,18.1
2023-03-26T11:14:35.085Z,18.1
2023-03-26T11:20:40.753Z,18.1
2023-03-26T11:26:45.919Z,18.1
2023-03-26T11:32:51.552Z,18.2
2023-03-26T11:38:58.305Z,18.1
2023-03-26T11:45:03.686Z,18.1
2023-03-26T11:51:09.864Z,18.1
2023-03-26T11:57:14.843Z,18.1
2023-03-26T12:03:20.627Z,18.2
2023-03-26T12:09:25.949Z,18.3
2023-03-26T12:15:31.311Z,18.3
2023-03-26T12:21:37.100Z,18.4
2023-03-26T12:27:42.472Z,18.4
2023-03-26T12:33:48.239Z,18.4
2023-03-26T12:40:08.402Z,18.3
2023-03-26T12:47:54.682Z,18.3
2023-03-26T12:54:06.879Z,18.3
2023-03-26T13:00:11.975Z,18.3
2023-03-26T13:06:17.563Z,18.3
2023-03-26T13:12:22.560Z,18.3
2023-03-26T13:18:27.458Z,18.3
2023-03-26T13:24:33.058Z,18.3
2023-03-26T13:30:38.418Z,18.3
2023-03-26T13:36:43.689Z,18.3
2023-03-26T13:42:50.170Z,18.3
2023-03-26T13:48:55.741Z,18.3
2023-03-26T13:55:01.160Z,18.3
2023-03-26T14:01:06.359Z,18.4
2023-03-26T14:07:12.352Z,18.3
2023-03-26T14:13:17.476Z,18.3
2023-03-26T14:19:27.953Z,18.4
2023-03-26T14:25:33.479Z,18.3
2023-03-26T14:31:39.115Z,18.3
2023-03-26T14:37:44.486Z,18.4
2023-03-26T14:43:50.397Z,18.4
2023-03-26T14:49:56.195Z,18.4
2023-03-26T14:56:01.770Z,18.3
2023-03-26T15:02:07.751Z,18.4
2023-03-26T15:08:13.840Z,18.3
2023-03-26T15:14:19.507Z,18.4
2023-03-26T15:20:25.061Z,18.3
2023-03-26T15:26:30.426Z,18.4
2023-03-26T15:32:35.812Z,18.3
2023-03-26T15:38:41.416Z,18.3
2023-03-26T15:44:52.998Z,18.3
2023-03-26T15:50:59.085Z,18.3
2023-03-26T15:57:04.459Z,18.3
2023-03-26T16:03:10.656Z,18.3
2023-03-26T16:09:16.241Z,18.3
2023-03-26T16:15:21.645Z,18.2
2023-03-26T16:21:30.696Z,18.2
2023-03-26T16:27:38.022Z,18.3
2023-03-26T16:33:43.057Z,18.3
2023-03-26T16:39:48.898Z,18.3
2023-03-26T16:45:54.589Z,18.3
2023-03-26T16:52:00.520Z,18.3
2023-03-26T16:58:05.738Z,18.3
2023-03-26T17:04:10.847Z,18.2
2023-03-26T17:10:16.504Z,18.2
2023-03-26T17:16:22.047Z,18.2
2023-03-26T17:22:27.778Z,18.2
2023-03-26T17:28:33.758Z,18.2
2023-03-26T17:34:38.796Z,18.2
2023-03-26T17:40:43.742Z,18.2
2023-03-26T17:46:49.262Z,18.2
2023-03-26T17:52:55.234Z,18.2
2023-03-26T17:59:00.873Z,18.1
2023-03-26T18:05:18.081Z,18.1
2023-03-26T18:11:23.430Z,18.1
2023-03-26T18:17:28.807Z,18
2023-03-26T18:23:34.547Z,18.1
2023-03-26T18:29:40.551Z,18.1
2023-03-26T18:35:46.089Z,18.1
2023-03-26T18:41:51.979Z,18
2023-03-26T18:47:57.338Z,18
2023-03-26T18:54:03.103Z,18
2023-03-26T19:00:08.687Z,18
2023-03-26T19:06:14.270Z,18
2023-03-26T19:12:20.233Z,18
2023-03-26T19:18:25.603Z,18
2023-03-26T19:24:30.754Z,18
2023-03-26T19:30:36.110Z,18
2023-03-26T19:36:41.817Z,18
2023-03-26T19:42:47.416Z,18
2023-03-26T19:48:53.430Z,18
2023-03-26T19:54:59.521Z,18
2023-03-26T20:01:05.414Z,18
2023-03-26T20:07:10.800Z,18
2023-03-26T20:13:15.737Z,18
2023-03-26T20:19:21.275Z,18
2023-03-26T20:25:28.735Z,17.9
2023-03-26T20:31:35.855Z,17.9
2023-03-26T20:37:41.710Z,17.9
2023-03-26T20:43:47.033Z,17.9
2023-03-26T20:49:52.681Z,17.9
2023-03-26T20:55:58.272Z,17.9
2023-03-26T21:02:04.162Z,17.9
2023-03-26T21:08:09.710Z,17.9
2023-03-26T21:14:15.103Z,17.9
2023-03-26T21:20:20.689Z,17.9
2023-03-26T21:32:47.883Z,17.9
2023-03-26T21:38:53.827Z,17.9
2023-03-26T21:44:59.202Z,17.9
2023-03-26T21:51:04.550Z,17.8
2023-03-26T21:57:10.067Z,17.8
2023-03-26T22:03:15.465Z,17.8
2023-03-26T22:15:42.586Z,17.8
2023-03-26T22:21:48.349Z,17.8
2023-03-26T22:27:54.548Z,17.8
2023-03-26T22:34:00.321Z,17.8
2023-03-26T22:40:06.715Z,17.8
2023-03-26T22:46:12.942Z,17.8
2023-03-26T22:52:19.081Z,17.7
2023-03-26T22:58:24.855Z,17.7
2023-03-26T23:04:32.128Z,17.7
2023-03-26T23:10:38.464Z,17.7
2023-03-26T23:16:43.840Z,17.7
2023-03-26T23:22:49.634Z,17.7
2023-03-26T23:28:55.008Z,17.7
2023-03-26T23:34:59.783Z,17.6
2023-03-26T23:41:05.909Z,17.6
2023-03-26T23:47:11.127Z,17.6
2023-03-26T23:53:16.637Z,17.6
2023-03-26T23:59:21.894Z,17.6
